Time;durP1;ratioP1;P1;durP2;ratioP2;P2;SDS_P1;SDS_P2;PMS_P1;PMS_P2;Temp;Humidity;BMP_temperature;BMP_pressure;BME280_temperature;BME280_humidity;BME280_pressure;Samples;Min_cycle;Max_cycle;Signal;HPM_P1;HPM_P2
2022/08/28 00:00:24;;;;;;;992.65;904.97;;;22.00;99.90;;;;;;4990317;28;20653;-78
2022/08/28 00:02:51;;;;;;;985.47;897.80;;;22.00;99.90;;;;;;5007031;28;20212;-78
2022/08/28 00:05:19;;;;;;;990.83;903.20;;;22.00;99.90;;;;;;4988581;28;20229;-78
2022/08/28 00:07:46;;;;;;;989.40;901.58;;;22.00;99.90;;;;;;4986879;28;20591;-78
2022/08/28 00:10:15;;;;;;;982.38;894.85;;;21.90;99.90;;;;;;4989909;28;20469;-78
2022/08/28 00:12:43;;;;;;;985.50;898.10;;;21.90;99.90;;;;;;4994505;28;20185;-79
2022/08/28 00:15:16;;;;;;;989.15;901.72;;;21.90;99.90;;;;;;4987451;28;20375;-79
2022/08/28 00:17:43;;;;;;;987.17;899.65;;;21.90;99.90;;;;;;4986856;28;20186;-78
2022/08/28 00:20:12;;;;;;;971.58;884.30;;;21.90;99.90;;;;;;4992730;28;20200;-78
2022/08/28 00:22:40;;;;;;;979.90;892.35;;;21.90;99.90;;;;;;4993479;28;20668;-78
2022/08/28 00:25:07;;;;;;;983.03;895.53;;;21.80;99.90;;;;;;4993400;28;20200;-78
2022/08/28 00:27:53;;;;;;;996.78;908.50;;;21.90;99.90;;;;;;4992807;28;20189;-78
2022/08/28 00:30:24;;;;;;;985.63;897.92;;;21.80;99.90;;;;;;4987744;28;20227;-79
2022/08/28 00:32:51;;;;;;;980.95;893.47;;;21.80;99.90;;;;;;4980794;28;20194;-77
2022/08/28 00:35:19;;;;;;;983.33;895.58;;;21.80;99.90;;;;;;4988841;28;20201;-79
2022/08/28 00:37:46;;;;;;;984.38;896.33;;;21.80;99.90;;;;;;4992922;28;20551;-80
2022/08/28 00:40:17;;;;;;;970.17;882.95;;;21.80;99.90;;;;;;4987543;28;20565;-78
2022/08/28 00:42:45;;;;;;;983.97;896.05;;;21.80;99.90;;;;;;4988092;28;20216;-78
2022/08/28 00:45:13;;;;;;;984.72;897.00;;;21.80;99.90;;;;;;4987989;28;20197;-78
2022/08/28 00:47:42;;;;;;;984.80;897.00;;;21.80;99.90;;;;;;4984386;28;20212;-80
2022/08/28 00:50:12;;;;;;;982.63;895.05;;;21.70;99.90;;;;;;4988370;28;20647;-80
2022/08/28 00:52:39;;;;;;;976.13;888.67;;;21.70;99.90;;;;;;4996055;28;20199;-80
2022/08/28 00:55:12;;;;;;;984.08;896.35;;;21.70;99.90;;;;;;4993522;28;20225;-79
2022/08/28 00:57:43;;;;;;;973.55;886.15;;;21.70;99.90;;;;;;4990142;28;20206;-80
2022/08/28 01:00:14;;;;;;;990.28;902.42;;;21.70;99.90;;;;;;4994772;28;20224;-79
2022/08/28 01:02:42;;;;;;;973.88;886.42;;;21.70;99.90;;;;;;4993441;28;20223;-78
2022/08/28 01:05:10;;;;;;;989.60;901.75;;;21.70;99.90;;;;;;4991087;28;20617;-80
2022/08/28 01:07:38;;;;;;;965.72;878.47;;;21.70;99.90;;;;;;5000746;28;20205;-79
2022/08/28 01:10:08;;;;;;;992.53;904.33;;;21.60;99.90;;;;;;4993063;28;20205;-78
2022/08/28 01:12:35;;;;;;;978.40;890.53;;;21.60;99.90;;;;;;4992017;28;20280;-78
2022/08/28 01:15:08;;;;;;;969.47;882.28;;;21.60;99.90;;;;;;4989254;28;20560;-78
2022/08/28 01:17:36;;;;;;;973.75;886.03;;;21.60;99.90;;;;;;4983058;28;20205;-80
2022/08/28 01:20:08;;;;;;;972.83;885.25;;;21.60;99.90;;;;;;4979175;28;20572;-79
2022/08/28 01:22:40;;;;;;;966.85;879.42;;;21.50;99.90;;;;;;4987178;28;20228;-79
2022/08/28 01:25:12;;;;;;;970.03;882.55;;;21.60;99.90;;;;;;4990713;28;20205;-78
2022/08/28 01:27:40;;;;;;;986.75;898.90;;;21.60;99.90;;;;;;4978831;28;20657;-78
2022/08/28 01:30:08;;;;;;;984.13;896.08;;;21.50;99.90;;;;;;4997731;28;20571;-78
2022/08/28 01:32:39;;;;;;;974.95;887.40;;;21.50;99.90;;;;;;4976776;28;20194;-78
2022/08/28 01:35:09;;;;;;;971.65;884.03;;;21.50;99.90;;;;;;4987825;28;20205;-79
2022/08/28 01:37:37;;;;;;;970.83;883.15;;;21.50;99.90;;;;;;4996915;28;20566;-78
2022/08/28 01:40:05;;;;;;;969.83;882.40;;;21.50;99.90;;;;;;4988908;28;20189;-79
2022/08/28 01:42:38;;;;;;;965.65;878.35;;;21.50;99.90;;;;;;4991607;28;20217;-79
2022/08/28 01:45:09;;;;;;;977.78;889.97;;;21.40;99.90;;;;;;4987281;28;20588;-82
2022/08/28 01:47:36;;;;;;;957.58;870.83;;;21.40;99.90;;;;;;4992544;28;20555;-79
2022/08/28 01:50:04;;;;;;;984.13;896.22;;;21.40;99.90;;;;;;4988148;28;20205;-77
2022/08/28 01:52:31;;;;;;;983.78;895.90;;;21.40;99.90;;;;;;4989040;28;20683;-78
2022/08/28 01:54:58;;;;;;;986.38;898.42;;;21.40;99.90;;;;;;4995634;28;20659;-78
2022/08/28 01:57:24;;;;;;;958.50;871.45;;;21.40;99.90;;;;;;4992813;28;20208;-79
2022/08/28 01:59:53;;;;;;;975.10;887.47;;;21.40;99.90;;;;;;4990958;28;20216;-77
2022/08/28 02:02:21;;;;;;;970.58;882.95;;;21.40;99.90;;;;;;4993605;28;20238;-78
2022/08/28 02:04:47;;;;;;;966.75;879.55;;;21.40;99.90;;;;;;4994140;28;20211;-79
2022/08/28 02:07:15;;;;;;;967.63;880.35;;;21.40;99.90;;;;;;4984613;28;20218;-79
2022/08/28 02:09:42;;;;;;;970.45;883.15;;;21.30;99.90;;;;;;4989368;28;20251;-78
2022/08/28 02:12:09;;;;;;;965.08;877.75;;;21.30;99.90;;;;;;4979179;28;20202;-79
2022/08/28 02:14:37;;;;;;;969.50;882.05;;;21.30;99.90;;;;;;4976097;28;20197;-78
2022/08/28 02:17:05;;;;;;;969.80;882.63;;;21.30;99.90;;;;;;4978994;28;20206;-78
2022/08/28 02:19:32;;;;;;;949.13;862.50;;;21.30;99.90;;;;;;5002616;28;20195;-83
2022/08/28 02:21:59;;;;;;;964.55;877.35;;;21.30;99.90;;;;;;4982922;28;20659;-83
2022/08/28 02:24:25;;;;;;;958.38;871.35;;;21.30;99.90;;;;;;4992222;28;20197;-82
2022/08/28 02:26:52;;;;;;;953.70;866.70;;;21.30;99.90;;;;;;4988223;28;20211;-83
2022/08/28 02:29:19;;;;;;;959.30;872.33;;;21.30;99.90;;;;;;4992147;28;20192;-82
2022/08/28 02:31:46;;;;;;;977.78;890.28;;;21.20;99.90;;;;;;4989296;28;20201;-82
2022/08/28 02:34:14;;;;;;;966.70;879.15;;;21.20;99.90;;;;;;4991877;28;20192;-83
2022/08/28 02:36:41;;;;;;;971.65;883.83;;;21.20;99.90;;;;;;5000044;28;20199;-82
2022/08/28 02:39:08;;;;;;;948.35;861.42;;;21.20;99.90;;;;;;4997449;28;20198;-83
2022/08/28 02:41:35;;;;;;;955.83;868.83;;;21.20;99.90;;;;;;4984645;28;20205;-84
2022/08/28 02:44:02;;;;;;;948.47;861.50;;;21.20;99.90;;;;;;4988873;28;20553;-83
2022/08/28 02:46:29;;;;;;;954.00;866.60;;;21.20;99.90;;;;;;4986265;28;20202;-84
2022/08/28 02:48:56;;;;;;;973.10;885.33;;;21.20;99.90;;;;;;4990265;28;20583;-84
2022/08/28 02:51:24;;;;;;;972.00;884.30;;;21.10;99.90;;;;;;4991421;28;20215;-84
2022/08/28 02:53:52;;;;;;;961.28;874.10;;;21.10;99.90;;;;;;4990083;28;20201;-84
2022/08/28 02:56:19;;;;;;;945.25;858.50;;;21.10;99.90;;;;;;4992504;28;20204;-83
2022/08/28 02:58:45;;;;;;;950.65;863.67;;;21.10;99.90;;;;;;4991132;28;20205;-82
2022/08/28 03:01:14;;;;;;;956.42;869.20;;;21.10;99.90;;;;;;4992110;28;20196;-82
2022/08/28 03:03:41;;;;;;;957.38;870.20;;;21.10;99.90;;;;;;4988987;28;20625;-83
2022/08/28 03:06:10;;;;;;;946.63;859.83;;;21.00;99.90;;;;;;4996635;28;20680;-82
2022/08/28 03:08:40;;;;;;;955.35;868.55;;;21.00;99.90;;;;;;4990702;28;20252;-83
2022/08/28 03:11:07;;;;;;;947.38;860.05;;;21.00;99.90;;;;;;4989368;28;20236;-82
2022/08/28 03:13:34;;;;;;;958.70;871.45;;;21.00;99.90;;;;;;4996879;28;20203;-81
2022/08/28 03:16:01;;;;;;;943.88;857.30;;;21.00;99.90;;;;;;4989566;28;20567;-82
2022/08/28 03:18:29;;;;;;;938.05;851.70;;;21.00;99.90;;;;;;4991807;28;20208;-82
2022/08/28 03:20:56;;;;;;;943.45;856.50;;;21.00;99.90;;;;;;4990628;28;20201;-81
2022/08/28 03:23:25;;;;;;;941.08;854.58;;;21.00;99.90;;;;;;4985633;28;20213;-82
2022/08/28 03:25:54;;;;;;;957.33;870.17;;;21.00;99.90;;;;;;4990777;28;20799;-83
2022/08/28 03:28:20;;;;;;;951.88;864.95;;;20.90;99.90;;;;;;4990910;28;20208;-82
2022/08/28 03:30:48;;;;;;;948.95;861.97;;;20.90;99.90;;;;;;4982132;28;20205;-82
2022/08/28 03:33:15;;;;;;;939.53;852.95;;;20.90;99.90;;;;;;4991698;28;20220;-82
2022/08/28 03:35:42;;;;;;;956.92;869.65;;;20.90;99.90;;;;;;4987061;28;20205;-82
2022/08/28 03:38:10;;;;;;;952.42;865.47;;;20.90;99.90;;;;;;4995221;28;20263;-83
2022/08/28 03:40:39;;;;;;;936.45;849.80;;;20.90;99.90;;;;;;4991672;28;20670;-82
2022/08/28 03:43:07;;;;;;;945.78;858.90;;;20.90;99.90;;;;;;4979865;28;20221;-83
2022/08/28 03:45:34;;;;;;;947.00;860.08;;;20.80;99.90;;;;;;4985869;28;20651;-82
2022/08/28 03:48:00;;;;;;;955.90;868.90;;;20.90;99.90;;;;;;4988427;28;20201;-82
2022/08/28 03:50:27;;;;;;;937.20;850.58;;;20.90;99.90;;;;;;4981027;28;20548;-82
2022/08/28 03:52:54;;;;;;;951.95;864.97;;;20.80;99.90;;;;;;4988392;28;20196;-82
2022/08/28 03:55:21;;;;;;;938.25;851.83;;;20.80;99.90;;;;;;4984783;28;20542;-82
2022/08/28 03:57:50;;;;;;;938.85;852.45;;;20.80;99.90;;;;;;4990347;28;20260;-80
2022/08/28 04:00:19;;;;;;;944.63;857.58;;;20.80;99.90;;;;;;4984649;28;20200;-82
2022/08/28 04:02:46;;;;;;;942.55;855.97;;;20.80;99.90;;;;;;4992823;28;20221;-82
2022/08/28 04:05:14;;;;;;;951.00;864.15;;;20.80;99.90;;;;;;4986782;28;20212;-82
2022/08/28 04:07:41;;;;;;;941.47;854.70;;;20.70;99.90;;;;;;4978484;28;20205;-82
2022/08/28 04:10:09;;;;;;;929.15;843.00;;;20.80;99.90;;;;;;4986516;28;20201;-81
2022/08/28 04:12:36;;;;;;;937.47;851.10;;;20.80;99.90;;;;;;4986886;28;20289;-82
2022/08/28 04:15:03;;;;;;;938.20;851.60;;;20.70;99.90;;;;;;4990268;28;20232;-82
2022/08/28 04:17:31;;;;;;;943.25;856.75;;;20.70;99.90;;;;;;4994359;28;20240;-82
2022/08/28 04:19:58;;;;;;;939.00;852.35;;;20.70;99.90;;;;;;4993757;28;20197;-82
2022/08/28 04:22:24;;;;;;;952.95;865.85;;;20.70;99.90;;;;;;4990072;28;20217;-82
2022/08/28 04:24:51;;;;;;;932.42;846.28;;;20.70;99.90;;;;;;4986140;28;20194;-82
2022/08/28 04:27:19;;;;;;;929.28;842.97;;;20.70;99.90;;;;;;4992656;28;20201;-82
2022/08/28 04:29:46;;;;;;;947.50;860.65;;;20.60;99.90;;;;;;4991183;28;20205;-82
2022/08/28 04:32:13;;;;;;;937.50;851.10;;;20.70;99.90;;;;;;4984403;28;20201;-82
2022/08/28 04:34:41;;;;;;;927.25;841.13;;;20.70;99.90;;;;;;4994859;28;20189;-82
2022/08/28 04:37:08;;;;;;;929.78;843.45;;;20.60;99.90;;;;;;4975675;28;20216;-83
2022/08/28 04:39:35;;;;;;;944.42;857.55;;;20.60;99.90;;;;;;4992690;28;20209;-83
2022/08/28 04:42:01;;;;;;;922.83;836.83;;;20.60;99.90;;;;;;4986382;28;20211;-82
2022/08/28 04:44:29;;;;;;;936.15;849.70;;;20.60;99.90;;;;;;4993174;28;20228;-82
2022/08/28 04:46:56;;;;;;;935.22;848.85;;;20.60;99.90;;;;;;4992086;28;20585;-83
2022/08/28 04:49:22;;;;;;;945.00;858.00;;;20.60;99.90;;;;;;4994198;28;20201;-82
2022/08/28 04:51:50;;;;;;;942.45;855.70;;;20.50;99.90;;;;;;4993150;28;20201;-83
2022/08/28 04:54:17;;;;;;;917.72;831.88;;;20.50;99.90;;;;;;4993892;28;20201;-81
2022/08/28 04:56:44;;;;;;;944.83;857.95;;;20.50;99.90;;;;;;4992541;28;20201;-83
2022/08/28 04:59:11;;;;;;;932.38;845.92;;;20.50;99.90;;;;;;4975250;28;20200;-83
2022/08/28 05:01:41;;;;;;;916.63;830.85;;;20.50;99.90;;;;;;4985715;28;20548;-82
2022/08/28 05:04:08;;;;;;;911.50;825.67;;;20.50;99.90;;;;;;4998054;28;20212;-82
2022/08/28 05:06:35;;;;;;;929.05;842.85;;;20.50;99.90;;;;;;4986269;28;20202;-82
2022/08/28 05:09:04;;;;;;;923.53;837.33;;;20.50;99.90;;;;;;4987385;28;20197;-82
2022/08/28 05:11:32;;;;;;;928.28;842.10;;;20.50;99.90;;;;;;4992369;28;20212;-82
2022/08/28 05:13:58;;;;;;;919.53;833.35;;;20.50;99.90;;;;;;4978136;28;20205;-82
2022/08/28 05:16:25;;;;;;;917.78;832.00;;;20.50;99.90;;;;;;4989654;28;20201;-82
2022/08/28 05:18:52;;;;;;;928.15;842.10;;;20.50;99.90;;;;;;4988184;28;20838;-82
2022/08/28 05:21:22;;;;;;;927.85;841.42;;;20.50;99.90;;;;;;4991812;28;20194;-83
2022/08/28 05:23:50;;;;;;;932.03;845.78;;;20.50;99.90;;;;;;4992121;28;20208;-80
2022/08/28 05:26:19;;;;;;;920.60;834.80;;;20.50;99.90;;;;;;4990868;28;20635;-81
2022/08/28 05:28:46;;;;;;;932.58;846.17;;;20.50;99.90;;;;;;4985507;28;20205;-82
2022/08/28 05:31:15;;;;;;;931.38;844.90;;;20.50;99.90;;;;;;4990184;28;20198;-84
2022/08/28 05:33:42;;;;;;;917.63;831.60;;;20.50;99.90;;;;;;4991068;28;20208;-83
2022/08/28 05:36:10;;;;;;;913.33;827.65;;;20.50;99.90;;;;;;4991333;28;20207;-83
2022/08/28 05:38:38;;;;;;;918.13;832.17;;;20.40;99.90;;;;;;4989002;28;20202;-82
2022/08/28 05:41:05;;;;;;;930.97;844.70;;;20.50;99.90;;;;;;4985803;28;20204;-80
2022/08/28 05:43:34;;;;;;;915.90;829.92;;;20.40;99.90;;;;;;4993129;28;20710;-83
2022/08/28 05:46:03;;;;;;;936.28;849.80;;;20.50;99.90;;;;;;4984122;28;20198;-82
2022/08/28 05:48:31;;;;;;;901.97;816.92;;;20.40;99.90;;;;;;4983636;28;20223;-83
2022/08/28 05:50:58;;;;;;;926.08;839.88;;;20.40;99.90;;;;;;4989578;28;20196;-82
2022/08/28 05:53:25;;;;;;;911.60;826.00;;;20.40;99.90;;;;;;4992980;28;20652;-83
2022/08/28 05:55:52;;;;;;;923.63;837.65;;;20.40;99.90;;;;;;4984353;28;20197;-82
2022/08/28 05:58:28;;;;;;;931.42;845.28;;;20.40;99.90;;;;;;4986452;28;20200;-82
2022/08/28 06:01:05;;;;;;;921.67;835.38;;;20.40;99.90;;;;;;4985897;28;20211;-82
2022/08/28 06:03:32;;;;;;;928.50;842.30;;;20.40;99.90;;;;;;4988931;28;20225;-82
2022/08/28 06:05:59;;;;;;;926.50;840.60;;;20.40;99.90;;;;;;4989172;28;20205;-83
2022/08/28 06:08:26;;;;;;;910.28;824.60;;;20.40;99.90;;;;;;4988097;28;20205;-81
2022/08/28 06:10:53;;;;;;;914.03;828.33;;;20.40;99.90;;;;;;4984027;28;20193;-82
2022/08/28 06:13:19;;;;;;;917.83;831.97;;;20.40;99.90;;;;;;4986788;28;20206;-81
2022/08/28 06:15:46;;;;;;;917.83;832.22;;;20.40;99.90;;;;;;4986056;28;20202;-83
2022/08/28 06:18:16;;;;;;;916.75;830.88;;;20.40;99.90;;;;;;4998945;28;20212;-84
2022/08/28 06:20:45;;;;;;;905.75;820.58;;;20.40;99.90;;;;;;4987026;28;20626;-84
2022/08/28 06:23:13;;;;;;;915.38;829.65;;;20.40;99.90;;;;;;4998484;28;20220;-85
2022/08/28 06:25:44;;;;;;;901.78;816.33;;;20.40;99.90;;;;;;4988025;28;20202;-86
2022/08/28 06:28:11;;;;;;;903.17;818.10;;;20.40;99.90;;;;;;4986935;28;20335;-84
2022/08/28 06:30:39;;;;;;;919.80;834.00;;;20.40;99.90;;;;;;4985456;28;20907;-84
2022/08/28 06:33:07;;;;;;;916.85;830.95;;;20.50;99.90;;;;;;4986815;28;20208;-85
2022/08/28 06:35:40;;;;;;;936.55;850.08;;;20.50;99.90;;;;;;4986886;28;20193;-84
2022/08/28 06:38:07;;;;;;;941.17;854.63;;;20.60;99.90;;;;;;4985056;28;20189;-84
2022/08/28 06:40:39;;;;;;;920.35;834.72;;;20.80;99.90;;;;;;4986207;28;20556;-84
2022/08/28 06:43:05;;;;;;;933.00;846.50;;;20.80;99.90;;;;;;4979196;28;20652;-84
2022/08/28 06:45:32;;;;;;;941.15;854.75;;;20.90;99.90;;;;;;4982797;28;20193;-83
2022/08/28 06:47:59;;;;;;;951.67;864.78;;;21.00;99.90;;;;;;4985892;28;20189;-83
2022/08/28 06:50:26;;;;;;;950.35;863.60;;;21.00;99.90;;;;;;4980864;28;20197;-83
2022/08/28 06:52:54;;;;;;;930.90;845.03;;;21.00;99.90;;;;;;4987698;28;20197;-82
2022/08/28 06:55:21;;;;;;;939.28;852.92;;;21.00;99.90;;;;;;4981254;28;20194;-83
2022/08/28 06:57:47;;;;;;;930.25;844.10;;;21.00;99.90;;;;;;4981062;28;20193;-84
2022/08/28 07:00:15;;;;;;;952.40;865.72;;;21.00;99.90;;;;;;4983694;28;20212;-83
2022/08/28 07:02:42;;;;;;;939.13;852.65;;;21.00;99.90;;;;;;4989274;28;20591;-83
2022/08/28 07:05:09;;;;;;;958.55;871.65;;;21.10;99.90;;;;;;4989279;28;20756;-83
2022/08/28 07:07:35;;;;;;;943.92;857.55;;;21.20;99.90;;;;;;4987144;28;20216;-84
2022/08/28 07:10:05;;;;;;;954.08;866.97;;;21.40;99.90;;;;;;4982197;28;20205;-85
2022/08/28 07:12:31;;;;;;;975.45;887.75;;;21.60;99.90;;;;;;4984619;28;20197;-83
2022/08/28 07:14:58;;;;;;;987.92;899.85;;;21.90;99.90;;;;;;4979923;28;20201;-85
2022/08/28 07:17:25;;;;;;;992.33;904.05;;;22.20;99.90;;;;;;4985563;28;20226;-83
2022/08/28 07:19:52;;;;;;;991.17;902.88;;;22.50;99.90;;;;;;4982623;28;20197;-83
2022/08/28 07:22:19;;;;;;;1014.30;925.53;;;22.70;99.90;;;;;;4987667;28;20193;-84
2022/08/28 07:24:45;;;;;;;1019.58;930.60;;;23.00;99.90;;;;;;4979425;28;20221;-84
2022/08/28 07:27:13;;;;;;;1036.22;946.83;;;23.10;99.90;;;;;;4979523;28;20198;-84
2022/08/28 07:29:40;;;;;;;1031.78;941.97;;;23.20;99.90;;;;;;4989671;28;20201;-84
2022/08/28 07:32:07;;;;;;;1020.78;931.85;;;23.10;99.90;;;;;;4989953;28;20204;-84
2022/08/28 07:34:39;;;;;;;1027.30;938.47;;;23.00;99.90;;;;;;4986647;28;20198;-84
2022/08/28 07:37:06;;;;;;;1024.78;935.90;;;22.80;99.90;;;;;;4991536;28;20404;-84
2022/08/28 07:39:33;;;;;;;1022.80;934.08;;;22.70;99.90;;;;;;4995648;28;20212;-84
2022/08/28 07:42:00;;;;;;;1020.78;932.15;;;22.60;99.90;;;;;;4995921;28;20560;-84
2022/08/28 07:47:13;;;;;;;1012.45;923.90;;;22.50;99.90;;;;;;4996230;28;20192;-85
2022/08/28 07:49:40;;;;;;;1003.63;915.20;;;22.50;99.90;;;;;;4994062;28;20197;-84
2022/08/28 07:52:08;;;;;;;997.50;909.25;;;22.40;99.90;;;;;;4996992;28;20197;-82
2022/08/28 07:54:36;;;;;;;992.50;904.95;;;22.40;99.90;;;;;;5010798;28;20643;-85
2022/08/28 07:57:03;;;;;;;989.95;902.38;;;22.50;99.90;;;;;;4996191;28;20199;-86
2022/08/28 07:59:31;;;;;;;1012.72;924.55;;;22.50;99.90;;;;;;5000235;28;20689;-83
2022/08/28 08:01:58;;;;;;;997.17;909.55;;;22.60;99.90;;;;;;5003363;28;20201;-87
2022/08/28 08:04:25;;;;;;;996.03;908.42;;;22.60;99.90;;;;;;4986571;28;20229;-84
2022/08/28 08:06:52;;;;;;;1015.45;927.15;;;22.60;99.90;;;;;;4981402;28;20208;-85
2022/08/28 08:09:20;;;;;;;997.58;909.92;;;22.60;99.90;;;;;;5003946;28;20197;-84
2022/08/28 08:11:48;;;;;;;1003.10;915.00;;;22.50;99.90;;;;;;4992391;28;20209;-84
2022/08/28 08:14:15;;;;;;;997.47;909.40;;;22.50;99.90;;;;;;4994509;28;20201;-85
2022/08/28 08:16:45;;;;;;;1007.47;919.30;;;22.40;99.90;;;;;;4989390;28;20190;-82
2022/08/28 08:19:13;;;;;;;992.22;904.08;;;22.30;99.90;;;;;;4993809;28;20666;-81
2022/08/28 08:21:41;;;;;;;974.40;887.05;;;22.30;99.90;;;;;;4988262;28;20224;-81
2022/08/28 08:24:08;;;;;;;988.13;900.47;;;22.20;99.90;;;;;;4993535;28;20220;-81
2022/08/28 08:26:36;;;;;;;994.85;906.83;;;22.20;99.90;;;;;;4991863;28;20224;-80
2022/08/28 08:29:03;;;;;;;1005.58;917.42;;;22.30;99.90;;;;;;4984553;28;20364;-81
2022/08/28 08:31:32;;;;;;;1009.95;921.55;;;22.50;99.90;;;;;;4987613;28;20201;-81
2022/08/28 08:34:03;;;;;;;993.15;905.70;;;22.60;99.90;;;;;;4992359;28;20715;-81
2022/08/28 08:36:32;;;;;;;1011.70;923.67;;;22.60;99.90;;;;;;4989288;28;20201;-80
2022/08/28 08:38:59;;;;;;;1008.00;919.88;;;22.70;99.90;;;;;;4995916;28;20197;-81
2022/08/28 08:41:30;;;;;;;1016.35;927.78;;;22.70;99.90;;;;;;4984906;28;20197;-82
2022/08/28 08:44:02;;;;;;;1011.63;923.38;;;22.70;99.90;;;;;;4996793;28;20221;-80
2022/08/28 08:46:39;;;;;;;1015.53;927.28;;;22.70;99.90;;;;;;4987013;28;20212;-81
2022/08/28 08:49:14;;;;;;;1010.70;922.38;;;22.60;99.80;;;;;;4979696;28;20675;-81
2022/08/28 08:51:43;;;;;;;1006.70;919.00;;;22.60;99.90;;;;;;4989283;28;20203;-80
2022/08/28 08:54:13;;;;;;;1000.58;912.55;;;22.50;99.90;;;;;;4993615;28;20216;-80
2022/08/28 08:56:41;;;;;;;998.50;910.97;;;22.50;99.90;;;;;;4993342;28;20568;-80
2022/08/28 08:59:14;;;;;;;1005.00;917.10;;;22.50;99.90;;;;;;4990019;28;20197;-81
2022/08/28 09:01:46;;;;;;;1009.65;921.58;;;22.50;99.90;;;;;;4998905;28;20200;-80
2022/08/28 09:04:25;;;;;;;989.47;901.97;;;22.50;99.90;;;;;;4985299;28;20249;-80
2022/08/28 09:06:59;;;;;;;999.17;911.47;;;22.60;99.90;;;;;;4984672;28;20205;-80
2022/08/28 09:09:30;;;;;;;998.25;910.50;;;22.60;99.90;;;;;;4990257;28;20659;-80
2022/08/28 09:12:00;;;;;;;1014.53;926.45;;;22.70;99.90;;;;;;4984533;28;20899;-81
2022/08/28 09:14:36;;;;;;;1013.58;925.53;;;22.70;99.90;;;;;;4982315;28;20205;-79
2022/08/28 09:17:04;;;;;;;1012.13;924.20;;;22.70;99.90;;;;;;4986825;28;20199;-81
2022/08/28 09:19:33;;;;;;;1017.58;929.33;;;22.70;99.90;;;;;;4986068;28;20564;-80
2022/08/28 09:22:00;;;;;;;1018.95;930.65;;;22.70;99.50;;;;;;4983380;28;20563;-82
2022/08/28 09:24:30;;;;;;;1027.10;938.63;;;22.80;99.30;;;;;;4983951;28;20241;-82
2022/08/28 09:26:59;;;;;;;1013.25;924.75;;;22.90;99.40;;;;;;4995273;28;20679;-81
2022/08/28 09:29:32;;;;;;;1032.43;943.50;;;23.00;99.30;;;;;;4988701;28;20204;-82
2022/08/28 09:32:17;;;;;;;1025.70;936.88;;;23.10;99.10;;;;;;4988077;28;20197;-82
2022/08/28 09:35:01;;;;;;;1043.00;953.88;;;23.20;98.50;;;;;;4984917;28;20207;-82
2022/08/28 09:37:30;;;;;;;1030.47;941.58;;;23.30;97.70;;;;;;4992643;28;20220;-81
2022/08/28 09:40:17;;;;;;;1053.65;963.97;;;23.30;97.80;;;;;;4990906;28;20204;-80
2022/08/28 09:45:51;;;;;;;1043.22;953.92;;;23.40;97.70;;;;;;4989246;28;20618;-80
2022/08/28 09:48:21;;;;;;;1045.28;955.83;;;23.40;97.80;;;;;;4984523;28;20198;-80
2022/08/28 09:50:58;;;;;;;1040.70;951.63;;;23.40;97.60;;;;;;4986588;28;20652;-80
2022/08/28 09:53:27;;;;;;;1023.55;935.08;;;23.40;97.70;;;;;;4987905;28;20192;-82
2022/08/28 09:56:05;;;;;;;1032.43;943.72;;;23.30;98.00;;;;;;4984247;28;20207;-80
2022/08/28 09:58:36;;;;;;;1035.28;946.42;;;23.30;97.80;;;;;;4984648;28;20201;-80
2022/08/28 10:01:09;;;;;;;1025.53;937.00;;;23.30;97.80;;;;;;4991207;28;20208;-80
2022/08/28 10:03:44;;;;;;;1045.47;956.42;;;23.30;97.60;;;;;;4989669;28;20239;-81
2022/08/28 10:06:18;;;;;;;1041.60;952.58;;;23.40;97.90;;;;;;4986492;28;20188;-81
2022/08/28 10:08:59;;;;;;;1042.07;952.95;;;23.30;98.00;;;;;;4984911;28;20210;-81
2022/08/28 10:11:34;;;;;;;1039.35;950.47;;;23.30;97.80;;;;;;4982366;28;20202;-80
2022/08/28 10:14:11;;;;;;;1036.07;946.95;;;23.30;96.60;;;;;;4984540;28;20204;-80
2022/08/28 10:16:46;;;;;;;1041.45;952.58;;;23.30;97.20;;;;;;4985778;28;20211;-81
2022/08/28 10:19:27;;;;;;;1046.30;956.92;;;23.30;97.10;;;;;;4987498;28;20252;-80
2022/08/28 10:22:05;;;;;;;1043.10;953.83;;;23.30;97.10;;;;;;4990524;28;20197;-80
2022/08/28 10:24:54;;;;;;;1026.07;937.72;;;23.30;97.10;;;;;;4990114;28;20227;-82
2022/08/28 10:27:36;;;;;;;1021.67;933.35;;;23.30;97.10;;;;;;4998789;28;20197;-80
2022/08/28 10:30:07;;;;;;;1030.25;941.42;;;23.30;97.20;;;;;;4990271;28;20568;-83
2022/08/28 10:32:50;;;;;;;1037.82;948.70;;;23.30;96.70;;;;;;4982011;28;20720;-79
2022/08/28 10:35:22;;;;;;;1032.13;943.50;;;23.30;96.60;;;;;;4983300;28;20197;-82
2022/08/28 10:38:00;;;;;;;1049.88;960.55;;;23.30;96.70;;;;;;4990595;28;20212;-80
2022/08/28 10:40:30;;;;;;;1021.35;933.22;;;23.30;96.80;;;;;;4989670;28;20195;-80
2022/08/28 10:43:04;;;;;;;1039.10;950.38;;;23.30;96.60;;;;;;4991023;28;20304;-82
2022/08/28 10:45:34;;;;;;;1031.68;943.15;;;23.30;96.90;;;;;;4994212;28;20594;-80
2022/08/28 10:48:07;;;;;;;1038.80;949.97;;;23.30;96.90;;;;;;4990432;28;20196;-82
2022/08/28 10:50:42;;;;;;;1030.10;941.25;;;23.30;96.40;;;;;;4988821;28;20556;-81
2022/08/28 10:53:13;;;;;;;1026.60;938.25;;;23.30;96.70;;;;;;4985735;28;20256;-81
2022/08/28 10:55:51;;;;;;;1032.70;943.92;;;23.30;97.00;;;;;;4989712;28;20209;-81
2022/08/28 10:58:18;;;;;;;1031.97;943.45;;;23.20;96.70;;;;;;4989947;28;20267;-81
2022/08/28 11:00:46;;;;;;;1038.57;949.67;;;23.20;96.70;;;;;;4987269;28;20216;-81
2022/08/28 11:03:16;;;;;;;1022.30;933.97;;;23.20;97.00;;;;;;4985589;28;20228;-81
2022/08/28 11:05:50;;;;;;;1019.42;930.97;;;23.20;97.00;;;;;;4995990;28;20304;-81
2022/08/28 11:08:26;;;;;;;1027.65;939.17;;;23.20;97.00;;;;;;4991811;28;20189;-83
2022/08/28 11:10:55;;;;;;;1026.43;937.65;;;23.20;97.10;;;;;;4990485;28;20189;-83
2022/08/28 11:13:48;;;;;;;1032.57;943.80;;;23.10;97.20;;;;;;4986968;28;20204;-82
2022/08/28 11:16:25;;;;;;;1032.10;943.25;;;23.10;97.00;;;;;;4984369;28;20189;-81
2022/08/28 11:19:13;;;;;;;1020.38;931.95;;;23.10;96.80;;;;;;4989510;28;20726;-81
2022/08/28 11:21:45;;;;;;;1024.68;936.22;;;23.10;96.80;;;;;;4984925;28;20664;-81
2022/08/28 11:24:26;;;;;;;1023.38;934.60;;;23.10;97.00;;;;;;4986572;28;20202;-82
2022/08/28 11:27:03;;;;;;;1010.35;922.38;;;23.10;97.10;;;;;;4988658;28;20197;-81
2022/08/28 11:30:00;;;;;;;1020.78;932.53;;;23.10;96.80;;;;;;4989100;28;20199;-80
2022/08/28 11:32:36;;;;;;;1026.93;938.33;;;23.20;96.70;;;;;;4988107;28;20196;-80
2022/08/28 11:35:06;;;;;;;1012.97;924.95;;;23.20;97.00;;;;;;4986149;28;20202;-80
2022/08/28 11:37:37;;;;;;;1037.28;948.15;;;23.20;97.00;;;;;;4998236;28;20197;-80
2022/08/28 11:40:18;;;;;;;1037.50;948.42;;;23.20;96.80;;;;;;4982224;28;20270;-82
2022/08/28 11:42:47;;;;;;;1026.22;937.42;;;23.20;96.90;;;;;;4991857;28;20193;-79
2022/08/28 11:45:20;;;;;;;1035.10;946.10;;;23.20;96.70;;;;;;4998199;28;20303;-81
2022/08/28 11:47:55;;;;;;;1021.60;933.38;;;23.20;96.50;;;;;;4994421;28;20217;-80
2022/08/28 11:50:29;;;;;;;1032.05;943.10;;;23.20;96.20;;;;;;4981001;28;20691;-80
2022/08/28 11:53:30;;;;;;;1026.03;937.28;;;23.20;96.60;;;;;;4983145;28;20688;-79
2022/08/28 11:56:30;;;;;;;1021.63;933.22;;;23.20;96.30;;;;;;4979579;28;20197;-80
2022/08/28 11:59:06;;;;;;;1018.78;930.13;;;23.20;96.70;;;;;;4988807;28;20201;-79
2022/08/28 12:01:35;;;;;;;1014.88;926.67;;;23.20;96.60;;;;;;4989424;28;20201;-80
2022/08/28 12:04:04;;;;;;;1017.88;929.25;;;23.20;96.70;;;;;;4982272;28;20221;-81
2022/08/28 12:06:49;;;;;;;1027.32;938.55;;;23.20;96.90;;;;;;4993984;28;20328;-82
2022/08/28 12:09:39;;;;;;;1026.60;938.15;;;23.10;96.30;;;;;;4984728;28;20648;-79
2022/08/28 12:12:33;;;;;;;1028.57;939.78;;;23.10;96.10;;;;;;4984998;28;20198;-81
2022/08/28 12:15:06;;;;;;;1011.53;923.40;;;23.10;96.40;;;;;;4989320;28;20193;-81
2022/08/28 12:17:53;;;;;;;1026.22;937.50;;;23.10;96.70;;;;;;4997313;28;20225;-81
2022/08/28 12:20:56;;;;;;;1023.58;935.08;;;23.10;96.70;;;;;;4984072;28;20197;-80
2022/08/28 12:23:41;;;;;;;1005.03;917.17;;;23.10;96.40;;;;;;4994958;28;20208;-79
2022/08/28 12:26:18;;;;;;;1020.45;932.17;;;23.10;96.30;;;;;;4991562;28;20224;-80